Time,TemperatureF,DewpointF,PressureIn,WindDirection,WindDirectionDegrees,WindSpeedMPH,WindSpeedGustMPH,Humidity,HourlyPrecipIn,Conditions,Clouds,dailyrainin,SoftwareType,DateUTC
2013-01-25 00:03:00,22.0,9.0,30.34,South,173,8.0,11.0,58,0.00,,,0.00,weatherlink.com 1.10,2013-01-25 06:03:00,
2013-01-25 00:18:00,22.0,9.0,30.34,SSE,167,6.0,9.0,58,0.00,,,0.00,weatherlink.com 1.10,2013-01-25 06:18:00,
2013-01-25 00:33:00,22.0,9.0,30.34,SSE,150,9.0,13.0,58,0.00,,,0.00,weatherlink.com 1.10,2013-01-25 06:33:00,
2013-01-25 00:49:00,22.1,9.0,30.34,SE,133,4.0,11.0,58,0.00,,,0.00,weatherlink.com 1.10,2013-01-25 06:49:00,
2013-01-25 01:04:00,22.1,9.0,30.33,South,175,5.0,11.0,58,0.00,,,0.00,weatherlink.com 1.10,2013-01-25 07:04:00,
2013-01-25 01:19:00,22.1,9.0,30.32,SE,142,6.0,11.0,58,0.00,,,0.00,weatherlink.com 1.10,2013-01-25 07:19:00,
2013-01-25 01:34:00,22.1,9.0,30.30,South,189,6.0,12.0,57,0.00,,,0.00,weatherlink.com 1.10,2013-01-25 07:34:00,
2013-01-25 01:49:00,22.1,9.0,30.30,SSE,157,8.0,10.0,58,0.00,,,0.00,weatherlink.com 1.10,2013-01-25 07:49:00,
2013-01-25 02:04:00,22.2,9.0,30.30,South,180,4.0,8.0,58,0.00,,,0.00,weatherlink.com 1.10,2013-01-25 08:04:00,
2013-01-25 02:19:00,22.2,9.0,30.28,South,180,2.0,10.0,58,0.00,,,0.00,weatherlink.com 1.10,2013-01-25 08:19:00,
2013-01-25 02:34:00,22.2,9.0,30.28,SSW,207,3.0,7.0,58,0.00,,,0.00,weatherlink.com 1.10,2013-01-25 08:34:00,
2013-01-25 02:49:00,22.2,9.0,30.28,South,170,2.0,7.0,58,0.00,,,0.00,weatherlink.com 1.10,2013-01-25 08:49:00,
2013-01-25 03:04:00,22.3,9.0,30.28,SSE,166,2.0,4.0,58,0.00,,,0.00,weatherlink.com 1.10,2013-01-25 09:04:00,
2013-01-25 03:19:00,22.2,9.0,30.27,SSW,192,2.0,7.0,58,0.00,,,0.00,weatherlink.com 1.10,2013-01-25 09:19:00,
2013-01-25 03:34:00,21.9,11.0,30.25,SSW,202,4.0,7.0,64,0.00,,,0.00,weatherlink.com 1.10,2013-01-25 09:34:00,
2013-01-25 03:49:00,21.6,13.0,30.25,SSW,192,2.0,5.0,68,0.00,,,0.00,weatherlink.com 1.10,2013-01-25 09:49:00,
2013-01-25 04:05:00,21.2,12.0,30.23,SSE,154,4.0,9.0,69,0.00,,,0.00,weatherlink.com 1.10,2013-01-25 10:05:00,
2013-01-25 04:20:00,21.4,12.0,30.22,South,182,5.0,8.0,67,0.00,,,0.00,weatherlink.com 1.10,2013-01-25 10:20:00,
2013-01-25 04:35:00,21.7,11.0,30.21,SSW,192,6.0,8.0,64,0.00,,,0.00,weatherlink.com 1.10,2013-01-25 10:35:00,
2013-01-25 04:50:00,21.9,11.0,30.21,SW,215,5.0,8.0,63,0.00,,,0.00,weatherlink.com 1.10,2013-01-25 10:50:00,
2013-01-25 05:05:00,22.1,11.0,30.21,SSW,205,5.0,7.0,63,0.00,,,0.00,weatherlink.com 1.10,2013-01-25 11:05:00,
2013-01-25 05:20:00,21.6,13.0,30.22,SSW,205,3.0,7.0,70,0.00,,,0.00,weatherlink.com 1.10,2013-01-25 11:20:00,
2013-01-25 05:35:00,21.6,14.0,30.22,SSW,213,3.0,5.0,71,0.00,,,0.00,weatherlink.com 1.10,2013-01-25 11:35:00,
2013-01-25 05:50:00,21.5,14.0,30.21,South,169,3.0,5.0,72,0.00,,,0.00,weatherlink.com 1.10,2013-01-25 11:50:00,
2013-01-25 06:05:00,21.4,14.0,30.20,SSW,201,2.0,5.0,73,0.00,,,0.00,weatherlink.com 1.10,2013-01-25 12:05:00,
2013-01-25 06:20:00,21.4,14.0,30.19,SSW,211,4.0,6.0,74,0.00,,,0.00,weatherlink.com 1.10,2013-01-25 12:20:00,
2013-01-25 06:35:00,21.3,14.0,30.19,South,175,2.0,5.0,74,0.00,,,0.00,weatherlink.com 1.10,2013-01-25 12:35:00,
2013-01-25 06:50:00,21.2,14.0,30.19,SW,223,5.0,6.0,75,0.00,,,0.00,weatherlink.com 1.10,2013-01-25 12:50:00,
2013-01-25 07:05:00,21.3,15.0,30.18,SSW,202,3.0,6.0,75,0.00,,,0.00,weatherlink.com 1.10,2013-01-25 13:05:00,
2013-01-25 07:20:00,21.3,15.0,30.19,SSW,212,3.0,5.0,75,0.00,,,0.00,weatherlink.com 1.10,2013-01-25 13:20:00,
2013-01-25 07:36:00,21.4,15.0,30.18,South,186,2.0,5.0,75,0.00,,,0.00,weatherlink.com 1.10,2013-01-25 13:36:00,
2013-01-25 07:51:00,21.6,15.0,30.18,SSW,202,5.0,6.0,75,0.00,,,0.00,weatherlink.com 1.10,2013-01-25 13:51:00,
2013-01-25 08:06:00,21.8,15.0,30.17,West,259,4.0,5.0,75,0.00,,,0.00,weatherlink.com 1.10,2013-01-25 14:06:00,
2013-01-25 08:21:00,22.2,15.0,30.17,West,261,2.0,6.0,74,0.00,,,0.00,weatherlink.com 1.10,2013-01-25 14:21:00,
2013-01-25 08:36:00,22.5,15.0,30.17,WSW,240,1.0,7.0,73,0.00,,,0.00,weatherlink.com 1.10,2013-01-25 14:36:00,
2013-01-25 08:51:00,23.1,15.0,30.16,WSW,245,2.0,8.0,71,0.00,,,0.00,weatherlink.com 1.10,2013-01-25 14:51:00,
2013-01-25 09:06:00,23.9,15.0,30.16,WNW,284,6.0,10.0,70,0.00,,,0.00,weatherlink.com 1.10,2013-01-25 15:06:00,
2013-01-25 09:21:00,24.4,16.0,30.16,West,261,2.0,11.0,69,0.00,,,0.00,weatherlink.com 1.10,2013-01-25 15:21:00,
2013-01-25 09:36:00,24.8,16.0,30.16,WSW,257,4.0,12.0,70,0.00,,,0.00,weatherlink.com 1.10,2013-01-25 15:36:00,
2013-01-25 09:51:00,25.4,17.0,30.16,West,280,5.0,12.0,71,0.00,,,0.00,weatherlink.com 1.10,2013-01-25 15:51:00,
2013-01-25 10:06:00,25.8,17.0,30.16,NNW,334,8.0,10.0,70,0.00,,,0.00,weatherlink.com 1.10,2013-01-25 16:06:00,
2013-01-25 10:21:00,26.1,18.0,30.15,WNW,302,4.0,12.0,71,0.00,,,0.00,weatherlink.com 1.10,2013-01-25 16:21:00,
2013-01-25 10:36:00,26.5,18.0,30.15,West,275,3.0,11.0,69,0.00,,,0.00,weatherlink.com 1.10,2013-01-25 16:36:00,
2013-01-25 10:52:00,27.3,18.0,30.14,West,261,10.0,14.0,68,0.00,,,0.00,weatherlink.com 1.10,2013-01-25 16:52:00,
2013-01-25 11:07:00,28.1,18.0,30.13,WSW,252,2.0,13.0,67,0.00,,,0.00,weatherlink.com 1.10,2013-01-25 17:07:00,
2013-01-25 11:22:00,28.9,19.0,30.13,WNW,295,9.0,13.0,66,0.00,,,0.00,weatherlink.com 1.10,2013-01-25 17:22:00,
2013-01-25 11:52:00,30.7,19.0,30.11,West,276,4.0,13.0,62,0.00,,,0.00,weatherlink.com 1.10,2013-01-25 17:52:00,
2013-01-25 12:22:00,31.4,18.0,30.09,WNW,284,6.0,15.0,58,0.00,,,0.00,weatherlink.com 1.10,2013-01-25 18:22:00,
2013-01-25 12:37:00,31.7,18.0,30.08,West,263,8.0,15.0,57,0.00,,,0.00,weatherlink.com 1.10,2013-01-25 18:37:00,
2013-01-25 12:52:00,32.5,18.0,30.07,WNW,284,11.0,17.0,55,0.00,,,0.00,weatherlink.com 1.10,2013-01-25 18:52:00,
2013-01-25 13:07:00,33.6,18.0,30.07,WNW,302,18.0,19.0,53,0.00,,,0.00,weatherlink.com 1.10,2013-01-25 19:07:00,
2013-01-25 13:22:00,34.0,18.0,30.07,WNW,293,12.0,19.0,52,0.00,,,0.00,weatherlink.com 1.10,2013-01-25 19:22:00,
2013-01-25 13:37:00,34.5,18.0,30.07,WNW,302,11.0,17.0,51,0.00,,,0.00,weatherlink.com 1.10,2013-01-25 19:37:00,
2013-01-25 13:52:00,34.9,18.0,30.05,WSW,246,11.0,21.0,50,0.00,,,0.00,weatherlink.com 1.10,2013-01-25 19:52:00,
2013-01-25 14:08:00,35.9,19.0,30.05,West,271,10.0,18.0,50,0.00,,,0.00,weatherlink.com 1.10,2013-01-25 20:08:00,
2013-01-25 14:23:00,36.2,19.0,30.06,NW,315,10.0,17.0,49,0.00,,,0.00,weatherlink.com 1.10,2013-01-25 20:23:00,
2013-01-25 14:38:00,36.9,19.0,30.06,WSW,254,7.0,16.0,49,0.00,,,0.00,weatherlink.com 1.10,2013-01-25 20:38:00,
2013-01-25 14:53:00,37.3,19.0,30.05,West,274,9.0,15.0,48,0.00,,,0.00,weatherlink.com 1.10,2013-01-25 20:53:00,
2013-01-25 15:08:00,37.3,19.0,30.06,West,260,14.0,19.0,48,0.00,,,0.00,weatherlink.com 1.10,2013-01-25 21:08:00,
2013-01-25 15:23:00,37.5,19.0,30.06,WSW,253,10.0,16.0,48,0.00,,,0.00,weatherlink.com 1.10,2013-01-25 21:23:00,
2013-01-25 15:38:00,37.7,20.0,30.06,WNW,289,13.0,17.0,49,0.00,,,0.00,weatherlink.com 1.10,2013-01-25 21:38:00,
2013-01-25 15:53:00,37.3,20.0,30.06,WNW,293,7.0,19.0,49,0.00,,,0.00,weatherlink.com 1.10,2013-01-25 21:53:00,
2013-01-25 16:08:00,37.0,20.0,30.07,WNW,294,7.0,19.0,50,0.00,,,0.00,weatherlink.com 1.10,2013-01-25 22:08:00,
2013-01-25 16:23:00,36.5,20.0,30.07,NNW,331,6.0,12.0,51,0.00,,,0.00,weatherlink.com 1.10,2013-01-25 22:23:00,
2013-01-25 16:38:00,35.6,19.0,30.08,NW,323,9.0,17.0,52,0.00,,,0.00,weatherlink.com 1.10,2013-01-25 22:38:00,
2013-01-25 16:53:00,34.7,19.0,30.09,NW,317,5.0,16.0,54,0.00,,,0.00,weatherlink.com 1.10,2013-01-25 22:53:00,
2013-01-25 17:08:00,33.8,19.0,30.09,NNW,344,6.0,16.0,55,0.00,,,0.00,weatherlink.com 1.10,2013-01-25 23:08:00,
2013-01-25 17:23:00,33.2,19.0,30.10,NW,312,11.0,14.0,57,0.00,,,0.00,weatherlink.com 1.10,2013-01-25 23:23:00,
2013-01-25 17:39:00,32.6,20.0,30.11,NNW,335,4.0,13.0,60,0.00,,,0.00,weatherlink.com 1.10,2013-01-25 23:39:00,
2013-01-25 17:54:00,31.3,20.0,30.11,NNW,331,9.0,10.0,64,0.00,,,0.00,weatherlink.com 1.10,2013-01-25 23:54:00,
2013-01-25 18:09:00,30.5,21.0,30.12,NNW,342,4.0,9.0,67,0.00,,,0.00,weatherlink.com 1.10,2013-01-26 00:09:00,
2013-01-25 18:24:00,30.0,21.0,30.14,NW,313,6.0,8.0,68,0.00,,,0.00,weatherlink.com 1.10,2013-01-26 00:24:00,
2013-01-25 18:39:00,30.2,20.0,30.14,NNW,327,2.0,10.0,67,0.00,,,0.00,weatherlink.com 1.10,2013-01-26 00:39:00,
2013-01-25 18:54:00,30.3,20.0,30.14,NNW,327,5.0,14.0,67,0.00,,,0.00,weatherlink.com 1.10,2013-01-26 00:54:00,
2013-01-25 19:09:00,29.9,20.0,30.14,NNW,348,6.0,10.0,68,0.00,,,0.00,weatherlink.com 1.10,2013-01-26 01:09:00,
2013-01-25 19:24:00,29.4,20.0,30.15,NW,326,4.0,10.0,69,0.00,,,0.00,weatherlink.com 1.10,2013-01-26 01:24:00,
2013-01-25 19:39:00,28.3,20.0,30.15,NNW,331,3.0,7.0,72,0.00,,,0.00,weatherlink.com 1.10,2013-01-26 01:39:00,
2013-01-25 19:54:00,27.5,19.0,30.16,North,360,10.0,10.0,71,0.00,,,0.00,weatherlink.com 1.10,2013-01-26 01:54:00,
2013-01-25 20:09:00,26.9,18.0,30.16,NW,307,5.0,12.0,68,0.00,,,0.00,weatherlink.com 1.10,2013-01-26 02:09:00,
2013-01-25 20:24:00,25.8,16.0,30.17,NNW,336,4.0,10.0,66,0.00,,,0.00,weatherlink.com 1.10,2013-01-26 02:24:00,
2013-01-25 20:39:00,24.6,14.0,30.18,NW,326,8.0,12.0,65,0.00,,,0.00,weatherlink.com 1.10,2013-01-26 02:39:00,
2013-01-25 20:55:00,23.5,12.0,30.18,NNW,329,9.0,12.0,61,0.00,,,0.00,weatherlink.com 1.10,2013-01-26 02:55:00,
2013-01-25 21:10:00,22.9,10.0,30.20,NW,312,7.0,15.0,57,0.00,,,0.00,weatherlink.com 1.10,2013-01-26 03:10:00,
2013-01-25 21:25:00,22.2,9.0,30.20,NW,321,2.0,14.0,58,0.00,,,0.00,weatherlink.com 1.10,2013-01-26 03:25:00,
2013-01-25 21:40:00,21.3,9.0,30.22,NNE,17,5.0,15.0,60,0.00,,,0.00,weatherlink.com 1.10,2013-01-26 03:40:00,
2013-01-25 21:55:00,20.8,9.0,30.23,NW,321,4.0,14.0,60,0.00,,,0.00,weatherlink.com 1.10,2013-01-26 03:55:00,
2013-01-25 22:10:00,20.2,9.0,30.24,North,360,4.0,9.0,62,0.00,,,0.00,weatherlink.com 1.10,2013-01-26 04:10:00,
2013-01-25 22:25:00,19.9,9.0,30.25,WNW,282,4.0,10.0,63,0.00,,,0.00,weatherlink.com 1.10,2013-01-26 04:25:00,
2013-01-25 22:40:00,19.3,9.0,30.26,NW,317,10.0,12.0,64,0.00,,,0.00,weatherlink.com 1.10,2013-01-26 04:40:00,
2013-01-25 22:55:00,19.0,9.0,30.26,NNW,342,6.0,12.0,64,0.00,,,0.00,weatherlink.com 1.10,2013-01-26 04:55:00,
2013-01-25 23:10:00,18.6,9.0,30.27,NW,314,5.0,10.0,65,0.00,,,0.00,weatherlink.com 1.10,2013-01-26 05:10:00,
2013-01-25 23:25:00,18.2,9.0,30.28,NNW,341,6.0,11.0,66,0.00,,,0.00,weatherlink.com 1.10,2013-01-26 05:25:00,
2013-01-25 23:40:00,17.7,8.0,30.28,NNW,340,6.0,10.0,67,0.00,,,0.00,weatherlink.com 1.10,2013-01-26 05:40:00,
2013-01-25 23:55:00,17.4,8.0,30.29,NW,317,5.0,9.0,68,0.00,,,0.00,weatherlink.com 1.10,2013-01-26 05:55:00,